createdAt,value
2017-11-07T00:00:27.223Z,9.07
2017-11-07T00:02:54.708Z,8.97
2017-11-07T00:05:22.159Z,7.20
2017-11-07T00:07:49.661Z,9.47
2017-11-07T00:10:17.124Z,8.20
2017-11-07T00:12:44.575Z,8.00
2017-11-07T00:15:12.057Z,8.63
2017-11-07T00:17:39.508Z,9.77
2017-11-07T00:20:06.979Z,8.90
2017-11-07T00:22:35.160Z,9.63
2017-11-07T00:25:02.633Z,7.80
2017-11-07T00:27:30.081Z,8.37
2017-11-07T00:29:57.590Z,9.93
2017-11-07T00:32:25.052Z,10.30
2017-11-07T00:34:52.524Z,8.20
2017-11-07T00:37:19.992Z,7.07
2017-11-07T00:39:47.467Z,8.40
2017-11-07T00:42:14.925Z,7.80
2017-11-07T00:44:42.452Z,7.17
2017-11-07T00:47:09.909Z,8.47
2017-11-07T00:49:37.382Z,7.47
2017-11-07T00:52:04.918Z,7.20
2017-11-07T00:54:32.381Z,5.57
2017-11-07T00:56:59.850Z,7.17
2017-11-07T00:59:27.394Z,7.17
2017-11-07T01:01:54.869Z,6.27
2017-11-07T01:04:22.321Z,6.27
2017-11-07T01:06:49.810Z,6.20
2017-11-07T01:09:17.286Z,6.10
2017-11-07T01:11:44.753Z,6.67
2017-11-07T01:14:12.307Z,6.97
2017-11-07T01:16:39.797Z,6.13
2017-11-07T01:19:08.820Z,5.67
2017-11-07T01:21:36.295Z,6.60
2017-11-07T01:24:03.740Z,6.50
2017-11-07T01:26:31.192Z,6.60
2017-11-07T01:28:58.728Z,8.20
2017-11-07T01:31:26.182Z,9.00
2017-11-07T01:33:53.656Z,8.27
2017-11-07T01:36:21.108Z,8.80
2017-11-07T01:38:48.584Z,8.13
2017-11-07T01:41:16.050Z,9.20
2017-11-07T01:43:43.589Z,9.33
2017-11-07T01:46:11.125Z,9.20
2017-11-07T01:48:38.609Z,8.37
2017-11-07T01:51:06.113Z,8.03
2017-11-07T01:53:33.590Z,8.80
2017-11-07T01:56:01.044Z,8.43
2017-11-07T01:58:28.521Z,9.07
2017-11-07T02:00:56.055Z,7.47
2017-11-07T02:03:23.544Z,6.47
2017-11-07T02:05:51.042Z,6.97
2017-11-07T02:08:18.509Z,7.70
2017-11-07T02:10:45.980Z,7.13
2017-11-07T02:13:13.450Z,8.70
2017-11-07T02:15:40.941Z,9.43
2017-11-07T02:18:08.400Z,9.20
2017-11-07T02:20:35.893Z,7.80
2017-11-07T02:23:03.661Z,8.50
2017-11-07T02:25:31.135Z,7.57
2017-11-07T02:27:58.593Z,9.50
2017-11-07T02:30:26.065Z,9.70
2017-11-07T02:32:53.518Z,7.77
2017-11-07T02:35:21.065Z,8.60
2017-11-07T02:37:48.702Z,8.47
2017-11-07T02:40:16.218Z,8.63
2017-11-07T02:42:43.985Z,8.10
2017-11-07T02:45:11.465Z,8.47
2017-11-07T02:47:38.926Z,8.30
2017-11-07T02:50:06.475Z,7.50
2017-11-07T02:52:33.957Z,9.03
2017-11-07T02:55:01.437Z,6.97
2017-11-07T02:57:28.923Z,7.43
2017-11-07T02:59:56.397Z,8.13
2017-11-07T03:02:23.850Z,8.23
2017-11-07T03:04:51.362Z,8.47
2017-11-07T03:07:18.825Z,8.83
2017-11-07T03:09:46.277Z,8.80
2017-11-07T03:12:13.750Z,8.30
2017-11-07T03:14:41.235Z,9.17
2017-11-07T03:17:08.708Z,7.27
2017-11-07T03:19:36.164Z,7.90
2017-11-07T03:22:03.636Z,7.63
2017-11-07T03:24:31.116Z,8.00
2017-11-07T03:26:58.586Z,7.47
2017-11-07T03:29:26.178Z,8.73
2017-11-07T03:31:53.788Z,7.93
2017-11-07T03:34:21.248Z,7.30
2017-11-07T03:36:48.740Z,9.67
2017-11-07T03:39:16.271Z,7.90
2017-11-07T03:41:43.726Z,7.40
2017-11-07T03:44:11.276Z,7.23
2017-11-07T03:46:38.790Z,7.03
2017-11-07T03:49:06.353Z,9.80
2017-11-07T03:51:33.864Z,7.73
2017-11-07T03:54:01.426Z,8.27
2017-11-07T03:56:28.893Z,8.93
2017-11-07T03:58:56.374Z,8.40
2017-11-07T04:01:23.884Z,9.40
2017-11-07T04:03:51.366Z,7.63
2017-11-07T04:06:18.817Z,7.70
2017-11-07T04:08:46.359Z,7.63
2017-11-07T04:11:13.812Z,10.70
2017-11-07T04:13:41.294Z,9.30
2017-11-07T04:16:08.829Z,9.80
2017-11-07T04:18:36.310Z,9.50
2017-11-07T04:21:03.774Z,9.50
2017-11-07T04:23:31.273Z,10.03
2017-11-07T04:25:58.739Z,10.23
2017-11-07T04:28:26.232Z,8.83
2017-11-07T04:30:53.833Z,9.80
2017-11-07T04:33:21.333Z,9.47
2017-11-07T04:35:48.913Z,9.30
2017-11-07T04:38:17.194Z,11.20
2017-11-07T04:40:44.736Z,9.80
2017-11-07T04:43:12.192Z,10.00
2017-11-07T04:45:39.669Z,9.33
2017-11-07T04:48:07.140Z,10.00
2017-11-07T04:50:34.664Z,9.40
2017-11-07T04:53:02.129Z,9.90
2017-11-07T04:55:29.668Z,9.80
2017-11-07T04:57:57.128Z,10.00
2017-11-07T05:00:24.613Z,9.60
2017-11-07T05:02:52.187Z,9.33
2017-11-07T05:05:19.705Z,10.00
2017-11-07T05:07:47.256Z,9.47
2017-11-07T05:10:14.733Z,9.83
2017-11-07T05:12:42.185Z,8.00
2017-11-07T05:15:09.681Z,9.07
2017-11-07T05:17:37.146Z,10.10
2017-11-07T05:20:04.785Z,10.90
2017-11-07T05:22:32.308Z,9.90
2017-11-07T05:24:59.773Z,8.67
2017-11-07T05:27:27.368Z,9.60
2017-11-07T05:29:54.822Z,9.37
2017-11-07T05:32:22.330Z,9.50
2017-11-07T05:34:49.812Z,11.20
2017-11-07T05:37:17.288Z,9.93
2017-11-07T05:39:44.816Z,11.50
2017-11-07T05:42:12.385Z,10.50
2017-11-07T05:44:39.854Z,12.73
2017-11-07T05:47:07.333Z,11.30
2017-11-07T05:49:34.804Z,11.33
2017-11-07T05:52:02.304Z,11.67
2017-11-07T05:54:29.764Z,11.50
2017-11-07T05:56:57.265Z,11.20
2017-11-07T05:59:24.743Z,10.50
2017-11-07T06:01:52.266Z,10.90
2017-11-07T06:04:19.720Z,10.67
2017-11-07T06:06:47.189Z,10.80
2017-11-07T06:09:14.678Z,9.73
2017-11-07T06:11:42.177Z,9.90
2017-11-07T06:14:09.653Z,9.23
2017-11-07T06:16:37.122Z,10.97
2017-11-07T06:19:04.606Z,9.80
2017-11-07T06:21:32.065Z,10.87
2017-11-07T06:23:59.547Z,10.33
2017-11-07T06:26:27.024Z,10.87
2017-11-07T06:28:54.505Z,11.10
2017-11-07T06:31:21.986Z,10.23
2017-11-07T06:33:49.487Z,9.50
2017-11-07T06:36:16.957Z,9.60
2017-11-07T06:38:44.432Z,10.70
2017-11-07T06:41:11.986Z,10.00
2017-11-07T06:43:40.286Z,10.27
2017-11-07T06:46:07.836Z,9.47
2017-11-07T06:48:35.430Z,9.30
2017-11-07T06:51:02.910Z,10.27
2017-11-07T06:53:30.389Z,10.50
2017-11-07T06:55:57.864Z,9.70
2017-11-07T06:58:25.361Z,9.57
2017-11-07T07:00:52.868Z,9.33
2017-11-07T07:03:20.324Z,10.07
2017-11-07T07:05:47.792Z,10.23
2017-11-07T07:08:15.253Z,11.33
2017-11-07T07:10:42.736Z,11.20
2017-11-07T07:13:10.227Z,9.73
2017-11-07T07:15:37.714Z,9.63
2017-11-07T07:18:05.226Z,11.20
2017-11-07T07:20:32.722Z,9.93
2017-11-07T07:23:00.197Z,10.40
2017-11-07T07:25:27.653Z,9.73
2017-11-07T07:27:55.163Z,9.77
2017-11-07T07:30:22.653Z,10.70
2017-11-07T07:32:50.157Z,10.47
2017-11-07T07:35:17.629Z,11.10
2017-11-07T07:37:45.105Z,9.43
2017-11-07T07:40:12.569Z,10.20
2017-11-07T07:42:40.121Z,10.53
2017-11-07T07:45:07.590Z,9.57
2017-11-07T07:47:35.138Z,7.67
2017-11-07T07:50:02.611Z,10.07
2017-11-07T07:52:30.088Z,10.07
2017-11-07T07:54:57.571Z,9.53
2017-11-07T07:57:25.155Z,10.03
2017-11-07T07:59:52.624Z,12.27
2017-11-07T08:02:20.085Z,11.67
2017-11-07T08:04:47.575Z,12.33
2017-11-07T08:07:15.070Z,10.77
2017-11-07T08:09:42.549Z,9.80
2017-11-07T08:12:10.021Z,10.43
2017-11-07T08:14:37.587Z,11.13
2017-11-07T08:17:05.086Z,10.90
2017-11-07T08:19:32.652Z,10.93
2017-11-07T08:22:00.109Z,9.63
2017-11-07T08:24:27.617Z,10.70
2017-11-07T08:26:55.078Z,10.67
2017-11-07T08:29:22.589Z,10.23
2017-11-07T08:31:50.150Z,9.97
2017-11-07T08:34:17.648Z,11.47
2017-11-07T08:36:45.123Z,10.60
2017-11-07T08:39:12.571Z,11.10
2017-11-07T08:41:40.069Z,11.10
2017-11-07T08:44:07.524Z,12.10
2017-11-07T08:46:35.081Z,12.20
2017-11-07T08:49:02.582Z,11.60
2017-11-07T08:51:30.077Z,11.50
2017-11-07T08:53:57.542Z,12.20
2017-11-07T08:56:25.033Z,10.70
2017-11-07T08:58:52.500Z,10.70
2017-11-07T09:01:20.033Z,12.30
2017-11-07T09:03:47.492Z,10.77
2017-11-07T09:06:14.978Z,11.50
2017-11-07T09:08:42.433Z,10.60
2017-11-07T09:11:09.913Z,10.60
2017-11-07T09:13:37.377Z,10.27
2017-11-07T09:16:04.853Z,10.87
2017-11-07T09:18:32.308Z,12.37
2017-11-07T09:20:59.810Z,10.87
2017-11-07T09:23:27.268Z,10.90
2017-11-07T09:25:54.800Z,11.50
2017-11-07T09:28:22.272Z,9.53
2017-11-07T09:30:49.834Z,10.50
2017-11-07T09:33:17.315Z,10.23
2017-11-07T09:35:44.775Z,10.47
2017-11-07T09:38:12.263Z,12.10
2017-11-07T09:40:39.724Z,10.27
2017-11-07T09:43:07.287Z,9.57
2017-11-07T09:45:34.737Z,9.67
2017-11-07T09:48:02.208Z,9.57
2017-11-07T09:50:29.770Z,10.70
2017-11-07T09:52:57.257Z,10.80
2017-11-07T09:55:24.721Z,10.67
2017-11-07T09:57:53.008Z,8.33
2017-11-07T10:00:20.576Z,10.17
2017-11-07T10:02:48.081Z,10.20
2017-11-07T10:05:15.699Z,8.67
2017-11-07T10:07:43.252Z,9.47
2017-11-07T10:10:10.878Z,9.23
2017-11-07T10:12:38.488Z,9.40
2017-11-07T10:15:05.998Z,8.63
2017-11-07T10:17:33.801Z,8.83
2017-11-07T10:20:01.296Z,9.53
2017-11-07T10:22:28.860Z,9.63
2017-11-07T10:24:56.368Z,8.73
2017-11-07T10:27:23.826Z,9.90
2017-11-07T10:29:51.329Z,9.33
2017-11-07T10:32:18.793Z,8.60
2017-11-07T10:34:46.273Z,9.47
2017-11-07T10:37:13.808Z,8.93
2017-11-07T10:39:41.378Z,8.50
2017-11-07T10:42:08.847Z,9.23
2017-11-07T10:44:36.376Z,10.50
2017-11-07T10:47:03.864Z,8.80
2017-11-07T10:49:31.393Z,9.87
2017-11-07T10:51:58.957Z,10.33
2017-11-07T10:54:26.449Z,10.27
2017-11-07T10:56:53.933Z,10.67
2017-11-07T10:59:21.399Z,10.40
2017-11-07T11:01:48.912Z,10.80
2017-11-07T11:04:16.378Z,11.57
2017-11-07T11:06:43.901Z,10.30
2017-11-07T11:09:11.363Z,10.70
2017-11-07T11:11:38.851Z,11.07
2017-11-07T11:14:06.368Z,9.70
2017-11-07T11:16:33.855Z,9.27
2017-11-07T11:19:01.321Z,10.67
2017-11-07T11:21:28.790Z,10.00
2017-11-07T11:23:56.333Z,11.23
2017-11-07T11:26:23.800Z,11.43
2017-11-07T11:28:51.273Z,11.27
2017-11-07T11:31:18.746Z,10.03
2017-11-07T11:33:46.220Z,12.53
2017-11-07T11:36:13.688Z,10.47
2017-11-07T11:38:41.168Z,9.43
2017-11-07T11:41:08.620Z,9.77
2017-11-07T11:43:36.100Z,11.80
2017-11-07T11:46:03.573Z,10.50
2017-11-07T11:48:31.033Z,10.50
2017-11-07T11:50:58.516Z,12.70
2017-11-07T11:53:25.986Z,11.33
2017-11-07T11:55:53.475Z,11.40
2017-11-07T11:58:20.992Z,12.10
2017-11-07T12:00:48.470Z,11.60
2017-11-07T12:03:16.042Z,11.10
2017-11-07T12:05:43.526Z,11.07
2017-11-07T12:08:11.029Z,10.40
2017-11-07T12:10:38.514Z,11.20
2017-11-07T12:13:06.040Z,10.20
2017-11-07T12:15:33.543Z,10.90
2017-11-07T12:18:01.052Z,10.27
2017-11-07T12:20:28.518Z,9.90
2017-11-07T12:22:56.003Z,10.27
2017-11-07T12:25:23.456Z,9.37
2017-11-07T12:27:50.945Z,9.93
2017-11-07T12:30:18.413Z,9.30
2017-11-07T12:32:45.886Z,8.40
2017-11-07T12:35:13.336Z,8.67
2017-11-07T12:37:40.914Z,9.20
2017-11-07T12:40:08.381Z,9.27
2017-11-07T12:42:35.860Z,8.07
2017-11-07T12:45:03.328Z,9.47
2017-11-07T12:47:30.796Z,9.23
2017-11-07T12:52:59.057Z,9.90
2017-11-07T12:55:26.508Z,9.30
2017-11-07T12:57:54.000Z,10.27
2017-11-07T13:00:21.466Z,9.93
2017-11-07T13:02:49.069Z,11.87
2017-11-07T13:05:16.524Z,10.97
2017-11-07T13:07:43.989Z,11.27
2017-11-07T13:10:11.465Z,11.53
2017-11-07T13:12:38.920Z,11.17
2017-11-07T13:15:06.410Z,10.57
2017-11-07T13:17:33.909Z,11.67
2017-11-07T13:20:01.389Z,11.77
2017-11-07T13:22:28.864Z,13.83
2017-11-07T13:24:56.353Z,12.57
2017-11-07T13:27:23.812Z,12.67
2017-11-07T13:29:51.393Z,12.73
2017-11-07T13:32:18.857Z,14.27
2017-11-07T13:34:46.412Z,13.10
2017-11-07T13:37:13.888Z,12.43
2017-11-07T13:39:41.386Z,12.43
2017-11-07T13:42:08.871Z,13.67
2017-11-07T13:44:36.349Z,13.87
2017-11-07T13:47:03.824Z,13.50
2017-11-07T13:49:31.300Z,15.10
2017-11-07T13:51:58.795Z,12.57
2017-11-07T13:54:26.302Z,13.50
2017-11-07T13:56:53.770Z,13.20
2017-11-07T13:59:21.261Z,12.07
2017-11-07T14:01:48.771Z,14.10
2017-11-07T14:04:16.241Z,13.60
2017-11-07T14:06:43.735Z,13.23
2017-11-07T14:09:11.217Z,13.40
2017-11-07T14:11:38.714Z,12.33
2017-11-07T14:14:06.173Z,14.97
2017-11-07T14:16:33.677Z,14.13
2017-11-07T14:19:01.137Z,13.60
2017-11-07T14:21:28.624Z,14.80
2017-11-07T14:23:56.087Z,12.93
2017-11-07T14:26:23.714Z,11.80
2017-11-07T14:28:51.177Z,13.83
2017-11-07T14:31:18.653Z,13.80
2017-11-07T14:33:46.136Z,12.27
2017-11-07T14:36:13.617Z,9.90
2017-11-07T14:38:41.117Z,10.73
2017-11-07T14:41:08.625Z,12.13
2017-11-07T14:43:36.116Z,12.40
2017-11-07T14:46:03.581Z,12.10
2017-11-07T14:48:31.065Z,11.50
2017-11-07T14:50:58.527Z,12.13
2017-11-07T14:53:26.004Z,9.60
2017-11-07T14:55:53.486Z,10.30
2017-11-07T14:58:20.989Z,10.90
2017-11-07T15:00:48.484Z,10.93
2017-11-07T15:03:15.970Z,10.90
2017-11-07T15:05:43.439Z,11.63
2017-11-07T15:08:10.978Z,10.20
2017-11-07T15:10:38.449Z,11.43
2017-11-07T15:13:05.923Z,10.13
2017-11-07T15:15:33.381Z,11.27
2017-11-07T15:18:00.913Z,10.57
2017-11-07T15:20:28.385Z,11.13
2017-11-07T15:22:55.927Z,13.40
2017-11-07T15:25:23.417Z,13.30
2017-11-07T15:27:50.877Z,11.33
2017-11-07T15:30:21.080Z,12.00
2017-11-07T15:32:48.666Z,11.07
2017-11-07T15:35:16.140Z,12.07
2017-11-07T15:37:43.595Z,14.30
2017-11-07T15:40:11.072Z,12.30
2017-11-07T15:42:39.140Z,12.70
2017-11-07T15:45:06.728Z,14.43
2017-11-07T15:47:34.266Z,13.73
2017-11-07T15:50:01.762Z,11.93
2017-11-07T15:52:29.341Z,14.40
2017-11-07T15:54:56.825Z,15.73
2017-11-07T15:57:24.288Z,11.73
2017-11-07T15:59:51.785Z,12.50
2017-11-07T16:02:19.257Z,12.90
2017-11-07T16:04:46.725Z,13.93
2017-11-07T16:07:14.204Z,13.40
2017-11-07T16:09:41.676Z,15.03
2017-11-07T16:12:09.173Z,14.50
2017-11-07T16:14:36.661Z,13.83
2017-11-07T16:17:04.176Z,14.67
2017-11-07T16:19:31.672Z,13.70
2017-11-07T16:21:59.149Z,14.60
2017-11-07T16:24:26.613Z,13.67
2017-11-07T16:26:54.100Z,15.07
2017-11-07T16:29:21.571Z,14.27
2017-11-07T16:31:49.044Z,13.83
2017-11-07T16:34:16.507Z,14.50
2017-11-07T16:36:43.989Z,15.00
2017-11-07T16:39:11.456Z,15.87
2017-11-07T16:41:39.041Z,15.53
2017-11-07T16:44:06.496Z,15.73
2017-11-07T16:46:33.965Z,13.73
2017-11-07T16:49:01.457Z,13.73
2017-11-07T16:51:28.957Z,15.53
2017-11-07T16:53:56.441Z,13.77
2017-11-07T16:56:24.012Z,13.50
2017-11-07T16:58:51.546Z,14.53
2017-11-07T17:01:19.008Z,14.90
2017-11-07T17:03:46.558Z,15.20
2017-11-07T17:06:14.032Z,15.33
2017-11-07T17:08:41.529Z,31.20
2017-11-07T17:11:08.993Z,30.17
2017-11-07T17:13:36.462Z,32.10
2017-11-07T17:16:03.937Z,16.07
2017-11-07T17:18:31.405Z,16.83
2017-11-07T17:20:58.887Z,15.63
2017-11-07T17:23:26.357Z,14.40
2017-11-07T17:25:53.844Z,14.83
2017-11-07T17:28:21.312Z,13.80
2017-11-07T17:30:48.793Z,14.30
2017-11-07T17:33:16.352Z,13.77
2017-11-07T17:35:43.836Z,14.93
2017-11-07T17:38:11.302Z,13.30
2017-11-07T17:40:38.801Z,13.80
2017-11-07T17:43:06.372Z,13.13
2017-11-07T17:45:33.934Z,15.60
2017-11-07T17:48:01.434Z,14.63
2017-11-07T17:50:28.912Z,15.70
2017-11-07T17:52:56.393Z,14.93
2017-11-07T17:55:23.892Z,13.93
2017-11-07T17:57:51.393Z,13.73
2017-11-07T18:00:18.912Z,14.20
2017-11-07T18:02:46.417Z,13.80
2017-11-07T18:05:13.893Z,14.13
2017-11-07T18:07:41.376Z,13.70
2017-11-07T18:10:08.866Z,14.83
2017-11-07T18:12:36.359Z,13.87
2017-11-07T18:15:03.814Z,14.57
2017-11-07T18:17:31.325Z,13.77
2017-11-07T18:19:58.785Z,13.80
2017-11-07T18:22:26.241Z,14.17
2017-11-07T18:24:53.785Z,14.97
2017-11-07T18:27:21.266Z,13.90
2017-11-07T18:29:48.743Z,15.20
2017-11-07T18:32:16.200Z,14.43
2017-11-07T18:34:43.772Z,15.33
2017-11-07T18:37:11.241Z,13.30
2017-11-07T18:39:38.721Z,13.83
2017-11-07T18:42:06.176Z,14.07
2017-11-07T18:44:33.700Z,16.20
2017-11-07T18:47:01.190Z,16.53
2017-11-07T18:49:28.711Z,15.67
2017-11-07T18:51:56.174Z,14.53
2017-11-07T18:54:23.685Z,14.70
2017-11-07T18:56:51.149Z,14.43
2017-11-07T18:59:18.613Z,14.40
2017-11-07T19:01:46.100Z,15.93
2017-11-07T19:04:13.561Z,15.07
2017-11-07T19:06:41.049Z,16.00
2017-11-07T19:09:08.521Z,15.73
2017-11-07T19:11:36.005Z,17.07
2017-11-07T19:14:03.477Z,15.43
2017-11-07T19:16:31.045Z,14.93
2017-11-07T19:18:58.533Z,14.13
2017-11-07T19:21:26.075Z,14.23
2017-11-07T19:23:53.617Z,14.27
2017-11-07T19:26:21.126Z,14.27
2017-11-07T19:28:48.600Z,14.83
2017-11-07T19:31:16.350Z,14.40
2017-11-07T19:33:43.868Z,13.73
2017-11-07T19:36:11.333Z,13.97
2017-11-07T19:38:38.838Z,14.20
2017-11-07T19:41:06.298Z,15.10
2017-11-07T19:43:33.793Z,13.93
2017-11-07T19:46:01.249Z,14.53
2017-11-07T19:48:28.810Z,15.43
2017-11-07T19:50:56.290Z,18.23
2017-11-07T19:53:23.790Z,14.40
2017-11-07T19:55:51.253Z,17.17
2017-11-07T19:58:18.725Z,14.20
2017-11-07T20:00:46.212Z,14.97
2017-11-07T20:03:13.690Z,15.43
2017-11-07T20:05:41.168Z,14.33
2017-11-07T20:08:08.644Z,14.07
2017-11-07T20:10:36.096Z,13.67
2017-11-07T20:13:03.576Z,13.07
2017-11-07T20:15:31.046Z,14.17
2017-11-07T20:17:58.596Z,13.37
2017-11-07T20:20:26.052Z,14.30
2017-11-07T20:22:53.615Z,13.27
2017-11-07T20:25:21.089Z,13.93
2017-11-07T20:27:48.548Z,13.73
2017-11-07T20:30:16.072Z,14.70
2017-11-07T20:32:43.538Z,15.13
2017-11-07T20:35:11.041Z,13.73
2017-11-07T20:37:38.545Z,13.10
2017-11-07T20:40:06.029Z,14.57
2017-11-07T20:42:33.489Z,16.23
2017-11-07T20:45:01.025Z,14.50
2017-11-07T20:47:28.573Z,13.23
2017-11-07T20:49:56.048Z,15.17
2017-11-07T20:52:23.586Z,13.50
2017-11-07T20:54:51.056Z,16.00
2017-11-07T20:57:18.539Z,12.97
2017-11-07T20:59:45.997Z,13.07
2017-11-07T21:02:13.527Z,13.80
2017-11-07T21:04:40.980Z,14.30
2017-11-07T21:07:08.466Z,13.20
2017-11-07T21:09:35.939Z,12.50
2017-11-07T21:12:03.459Z,14.00
2017-11-07T21:14:31.035Z,14.90
2017-11-07T21:16:58.521Z,13.87
2017-11-07T21:19:32.408Z,15.07
2017-11-07T21:21:59.932Z,15.57
2017-11-07T21:24:27.485Z,14.90
2017-11-07T21:26:54.952Z,12.70
2017-11-07T21:29:22.412Z,13.93
2017-11-07T21:31:49.954Z,15.90
2017-11-07T21:34:23.438Z,16.20
2017-11-07T21:36:50.920Z,17.23
2017-11-07T21:39:18.472Z,15.67
2017-11-07T21:41:45.932Z,14.87
2017-11-07T21:44:13.421Z,14.90
2017-11-07T21:46:40.897Z,12.73
2017-11-07T21:49:08.398Z,15.20
2017-11-07T21:51:35.865Z,15.77
2017-11-07T21:54:03.364Z,16.43
2017-11-07T21:56:30.820Z,14.90
2017-11-07T21:58:58.295Z,14.00
2017-11-07T22:01:25.748Z,13.13
2017-11-07T22:03:53.233Z,14.40
2017-11-07T22:06:20.797Z,17.30
2017-11-07T22:08:48.304Z,15.07
2017-11-07T22:11:15.774Z,14.20
2017-11-07T22:13:43.289Z,12.27
2017-11-07T22:16:10.744Z,15.77
2017-11-07T22:18:38.220Z,16.90
2017-11-07T22:21:05.744Z,16.20
2017-11-07T22:23:38.871Z,16.60
2017-11-07T22:26:06.321Z,16.50
2017-11-07T22:28:33.800Z,16.80
2017-11-07T22:31:01.262Z,17.60
2017-11-07T22:33:28.762Z,15.23
2017-11-07T22:35:56.326Z,17.70
2017-11-07T22:38:23.809Z,17.13
2017-11-07T22:40:51.276Z,17.90
2017-11-07T22:43:18.769Z,16.40
2017-11-07T22:45:46.228Z,17.10
2017-11-07T22:48:13.692Z,18.10
2017-11-07T22:50:41.277Z,17.83
2017-11-07T22:53:08.828Z,18.20
2017-11-07T22:55:36.315Z,18.07
2017-11-07T22:58:03.779Z,16.50
2017-11-07T23:00:31.290Z,16.53
2017-11-07T23:02:58.753Z,17.90
2017-11-07T23:05:26.233Z,17.80
2017-11-07T23:07:53.757Z,16.90
2017-11-07T23:10:21.245Z,15.23
2017-11-07T23:12:48.708Z,16.10
2017-11-07T23:15:16.186Z,16.60
2017-11-07T23:17:43.658Z,16.43
2017-11-07T23:20:11.129Z,15.23
2017-11-07T23:22:38.622Z,17.63
2017-11-07T23:25:06.095Z,14.77
2017-11-07T23:27:33.554Z,17.30
2017-11-07T23:30:01.062Z,16.97
2017-11-07T23:32:28.522Z,17.30
2017-11-07T23:34:55.989Z,15.90
2017-11-07T23:37:23.553Z,14.70
2017-11-07T23:39:51.110Z,16.73
2017-11-07T23:42:18.617Z,16.50
2017-11-07T23:44:46.077Z,17.33
2017-11-07T23:47:13.552Z,15.13
2017-11-07T23:49:41.016Z,16.07
2017-11-07T23:52:08.497Z,15.10
2017-11-07T23:54:35.954Z,17.00
2017-11-07T23:57:03.440Z,15.60
2017-11-07T23:59:30.892Z,15.67
